sensor_id;sensor_type;location;lat;lon;timestamp;pressure;altitude;pressure_sealevel;temperature;humidity
84924;BME280;75286;52.218;5.180;2024-01-30T00:02:23;102585.88;;;8.06;98.56
84924;BME280;75286;52.218;5.180;2024-01-30T00:04:48;102586.47;;;8.10;98.35
84924;BME280;75286;52.218;5.180;2024-01-30T00:07:14;102580.72;;;8.06;98.03
84924;BME280;75286;52.218;5.180;2024-01-30T00:09:40;102593.81;;;8.14;98.10
84924;BME280;75286;52.218;5.180;2024-01-30T00:12:06;102558.78;;;7.91;98.72
84924;BME280;75286;52.218;5.180;2024-01-30T00:14:34;102544.75;;;7.84;98.60
84924;BME280;75286;52.218;5.180;2024-01-30T00:17:00;102550.34;;;7.89;98.43
84924;BME280;75286;52.218;5.180;2024-01-30T00:19:26;102459.25;;;7.37;98.26
84924;BME280;75286;52.218;5.180;2024-01-30T00:21:55;102585.63;;;8.09;97.99
84924;BME280;75286;52.218;5.180;2024-01-30T00:24:22;102596.94;;;8.18;98.24
84924;BME280;75286;52.218;5.180;2024-01-30T00:26:48;102598.59;;;8.19;98.25
84924;BME280;75286;52.218;5.180;2024-01-30T00:29:14;102601.88;;;8.21;97.70
84924;BME280;75286;52.218;5.180;2024-01-30T00:31:44;102591.13;;;8.16;98.12
84924;BME280;75286;52.218;5.180;2024-01-30T00:34:10;102599.53;;;8.18;97.80
84924;BME280;75286;52.218;5.180;2024-01-30T00:36:36;102592.16;;;8.13;97.96
84924;BME280;75286;52.218;5.180;2024-01-30T00:39:02;102573.00;;;8.06;98.18
84924;BME280;75286;52.218;5.180;2024-01-30T00:41:31;102593.81;;;8.14;98.95
84924;BME280;75286;52.218;5.180;2024-01-30T00:43:56;102586.47;;;8.10;98.54
84924;BME280;75286;52.218;5.180;2024-01-30T00:46:22;102595.19;;;8.18;98.79
84924;BME280;75286;52.218;5.180;2024-01-30T00:48:47;102586.19;;;8.13;98.37
84924;BME280;75286;52.218;5.180;2024-01-30T00:51:12;102590.28;;;8.15;98.63
84924;BME280;75286;52.218;5.180;2024-01-30T00:53:38;102589.59;;;8.13;99.17
84924;BME280;75286;52.218;5.180;2024-01-30T00:56:03;102578.34;;;8.14;98.61
84924;BME280;75286;52.218;5.180;2024-01-30T00:58:29;102579.66;;;8.09;98.81
84924;BME280;75286;52.218;5.180;2024-01-30T01:00:54;102575.78;;;8.14;98.17
84924;BME280;75286;52.218;5.180;2024-01-30T01:03:19;102583.75;;;8.11;98.46
84924;BME280;75286;52.218;5.180;2024-01-30T01:05:45;102589.22;;;8.18;98.24
84924;BME280;75286;52.218;5.180;2024-01-30T01:08:10;102579.88;;;8.17;98.41
84924;BME280;75286;52.218;5.180;2024-01-30T01:10:35;102577.28;;;8.17;98.33
84924;BME280;75286;52.218;5.180;2024-01-30T01:13:01;102572.00;;;8.18;97.94
84924;BME280;75286;52.218;5.180;2024-01-30T01:15:26;102564.84;;;8.22;98.08
84924;BME280;75286;52.218;5.180;2024-01-30T01:17:54;102551.69;;;8.25;97.43
84924;BME280;75286;52.218;5.180;2024-01-30T01:20:20;102557.25;;;8.20;97.67
84924;BME280;75286;52.218;5.180;2024-01-30T01:22:45;102564.03;;;8.21;98.09
84924;BME280;75286;52.218;5.180;2024-01-30T01:25:10;102559.38;;;8.15;98.46
84924;BME280;75286;52.218;5.180;2024-01-30T01:27:36;102570.50;;;8.16;97.52
84924;BME280;75286;52.218;5.180;2024-01-30T01:30:10;102571.06;;;8.19;97.65
84924;BME280;75286;52.218;5.180;2024-01-30T01:32:36;102573.91;;;8.16;97.86
84924;BME280;75286;52.218;5.180;2024-01-30T01:35:02;102567.81;;;8.17;98.17
84924;BME280;75286;52.218;5.180;2024-01-30T01:37:30;102584.88;;;8.18;98.41
84924;BME280;75286;52.218;5.180;2024-01-30T01:39:56;102578.91;;;8.18;97.97
84924;BME280;75286;52.218;5.180;2024-01-30T01:42:21;102567.94;;;8.16;98.28
84924;BME280;75286;52.218;5.180;2024-01-30T01:44:47;102575.53;;;8.17;98.00
84924;BME280;75286;52.218;5.180;2024-01-30T01:47:14;102570.25;;;8.19;97.74
84924;BME280;75286;52.218;5.180;2024-01-30T01:49:40;102560.19;;;8.16;97.85
84924;BME280;75286;52.218;5.180;2024-01-30T01:52:06;102568.88;;;8.15;98.36
84924;BME280;75286;52.218;5.180;2024-01-30T01:54:31;102570.38;;;8.17;97.83
84924;BME280;75286;52.218;5.180;2024-01-30T01:56:57;102553.66;;;8.12;97.70
84924;BME280;75286;52.218;5.180;2024-01-30T01:59:28;102561.03;;;8.16;97.89
84924;BME280;75286;52.218;5.180;2024-01-30T02:01:55;102549.56;;;8.09;98.00
84924;BME280;75286;52.218;5.180;2024-01-30T02:04:20;102562.78;;;8.16;97.34
84924;BME280;75286;52.218;5.180;2024-01-30T02:06:46;102563.97;;;8.12;97.95
84924;BME280;75286;52.218;5.180;2024-01-30T02:09:11;102574.28;;;8.12;97.97
84924;BME280;75286;52.218;5.180;2024-01-30T02:11:37;102575.22;;;8.11;97.87
84924;BME280;75286;52.218;5.180;2024-01-30T02:14:04;102567.59;;;8.09;97.77
84924;BME280;75286;52.218;5.180;2024-01-30T02:16:33;102550.50;;;8.08;97.78
84924;BME280;75286;52.218;5.180;2024-01-30T02:18:58;102546.88;;;8.11;98.31
84924;BME280;75286;52.218;5.180;2024-01-30T02:21:24;102563.38;;;8.08;97.84
84924;BME280;75286;52.218;5.180;2024-01-30T02:23:50;102564.31;;;8.07;97.99
84924;BME280;75286;52.218;5.180;2024-01-30T02:26:15;102561.06;;;8.05;98.20
84924;BME280;75286;52.218;5.180;2024-01-30T02:28:41;102565.25;;;8.06;97.87
84924;BME280;75286;52.218;5.180;2024-01-30T02:31:06;102557.22;;;8.00;98.14
84924;BME280;75286;52.218;5.180;2024-01-30T02:33:32;102556.78;;;7.95;98.33
84924;BME280;75286;52.218;5.180;2024-01-30T02:35:57;102571.22;;;8.07;97.80
84924;BME280;75286;52.218;5.180;2024-01-30T02:38:26;102557.53;;;8.06;97.97
84924;BME280;75286;52.218;5.180;2024-01-30T02:40:52;102548.31;;;8.04;98.11
84924;BME280;75286;52.218;5.180;2024-01-30T02:43:17;102528.53;;;8.04;98.25
84924;BME280;75286;52.218;5.180;2024-01-30T02:45:43;102513.19;;;8.03;97.90
84924;BME280;75286;52.218;5.180;2024-01-30T02:48:08;102540.03;;;8.00;98.07
84924;BME280;75286;52.218;5.180;2024-01-30T02:50:34;102540.25;;;7.97;98.54
84924;BME280;75286;52.218;5.180;2024-01-30T02:52:59;102530.78;;;7.98;98.29
84924;BME280;75286;52.218;5.180;2024-01-30T02:55:27;102529.94;;;7.97;98.18
84924;BME280;75286;52.218;5.180;2024-01-30T02:57:53;102527.25;;;7.99;97.94
84924;BME280;75286;52.218;5.180;2024-01-30T03:00:19;102536.47;;;8.01;97.89
84924;BME280;75286;52.218;5.180;2024-01-30T03:02:45;102525.94;;;8.04;98.05
84924;BME280;75286;52.218;5.180;2024-01-30T03:05:10;102520.47;;;7.98;97.86
84924;BME280;75286;52.218;5.180;2024-01-30T03:07:35;102523.16;;;7.96;98.00
84924;BME280;75286;52.218;5.180;2024-01-30T03:10:01;102515.59;;;7.95;98.13
84924;BME280;75286;52.218;5.180;2024-01-30T03:12:26;102523.47;;;8.03;97.92
84924;BME280;75286;52.218;5.180;2024-01-30T03:14:52;102532.97;;;8.02;98.13
84924;BME280;75286;52.218;5.180;2024-01-30T03:17:17;102517.06;;;7.97;97.76
84924;BME280;75286;52.218;5.180;2024-01-30T03:19:43;102525.25;;;8.02;97.86
84924;BME280;75286;52.218;5.180;2024-01-30T03:22:08;102517.50;;;8.02;98.22
84924;BME280;75286;52.218;5.180;2024-01-30T03:24:33;102510.16;;;7.98;97.39
84924;BME280;75286;52.218;5.180;2024-01-30T03:27:01;102503.00;;;8.01;97.42
84924;BME280;75286;52.218;5.180;2024-01-30T03:29:27;102497.56;;;7.95;97.21
84924;BME280;75286;52.218;5.180;2024-01-30T03:31:58;102486.09;;;7.88;97.82
84924;BME280;75286;52.218;5.180;2024-01-30T03:34:24;102478.22;;;7.89;97.29
84924;BME280;75286;52.218;5.180;2024-01-30T03:36:49;102490.94;;;8.02;97.15
84924;BME280;75286;52.218;5.180;2024-01-30T03:39:14;102480.78;;;8.00;97.63
84924;BME280;75286;52.218;5.180;2024-01-30T03:41:42;102486.59;;;8.02;97.43
84924;BME280;75286;52.218;5.180;2024-01-30T03:44:08;102473.56;;;7.94;97.61
84924;BME280;75286;52.218;5.180;2024-01-30T03:46:33;102469.34;;;7.93;97.21
84924;BME280;75286;52.218;5.180;2024-01-30T03:48:58;102483.84;;;7.94;97.83
84924;BME280;75286;52.218;5.180;2024-01-30T03:51:27;102491.09;;;8.00;97.35
84924;BME280;75286;52.218;5.180;2024-01-30T03:54:05;102495.66;;;7.97;98.08
84924;BME280;75286;52.218;5.180;2024-01-30T03:56:35;102494.97;;;7.95;98.09
84924;BME280;75286;52.218;5.180;2024-01-30T03:59:00;102503.59;;;8.05;98.02
84924;BME280;75286;52.218;5.180;2024-01-30T04:01:28;102497.50;;;8.06;97.68
84924;BME280;75286;52.218;5.180;2024-01-30T04:03:53;102495.03;;;8.04;97.63
84924;BME280;75286;52.218;5.180;2024-01-30T04:06:18;102498.16;;;8.08;97.38
84924;BME280;75286;52.218;5.180;2024-01-30T04:08:44;102498.16;;;8.08;97.61
84924;BME280;75286;52.218;5.180;2024-01-30T04:11:09;102503.09;;;8.11;97.75
84924;BME280;75286;52.218;5.180;2024-01-30T04:13:34;102498.59;;;8.13;97.73
84924;BME280;75286;52.218;5.180;2024-01-30T04:16:04;102490.19;;;8.11;97.59
84924;BME280;75286;52.218;5.180;2024-01-30T04:18:29;102495.91;;;8.14;97.61
84924;BME280;75286;52.218;5.180;2024-01-30T04:21:07;102487.47;;;8.12;97.70
84924;BME280;75286;52.218;5.180;2024-01-30T04:23:32;102486.69;;;8.12;97.73
84924;BME280;75286;52.218;5.180;2024-01-30T04:26:07;102474.81;;;8.00;97.37
84924;BME280;75286;52.218;5.180;2024-01-30T04:28:32;102491.03;;;8.11;97.78
84924;BME280;75286;52.218;5.180;2024-01-30T04:30:57;102470.22;;;8.03;97.13
84924;BME280;75286;52.218;5.180;2024-01-30T04:33:32;102485.03;;;8.11;97.69
84924;BME280;75286;52.218;5.180;2024-01-30T04:35:57;102463.53;;;8.01;97.42
84924;BME280;75286;52.218;5.180;2024-01-30T04:38:23;102469.00;;;8.07;97.81
84924;BME280;75286;52.218;5.180;2024-01-30T04:40:48;102458.97;;;8.04;97.56
84924;BME280;75286;52.218;5.180;2024-01-30T04:43:14;102464.66;;;8.08;97.19
84924;BME280;75286;52.218;5.180;2024-01-30T04:45:41;102468.66;;;8.12;97.48
84924;BME280;75286;52.218;5.180;2024-01-30T04:48:06;102466.88;;;8.12;97.49
84924;BME280;75286;52.218;5.180;2024-01-30T04:50:34;102456.00;;;8.09;97.13
84924;BME280;75286;52.218;5.180;2024-01-30T04:52:59;102469.59;;;8.11;97.65
84924;BME280;75286;52.218;5.180;2024-01-30T04:55:25;102475.28;;;8.14;97.19
84924;BME280;75286;52.218;5.180;2024-01-30T04:57:50;102466.06;;;8.12;97.44
84924;BME280;75286;52.218;5.180;2024-01-30T05:00:16;102478.69;;;8.15;96.79
84924;BME280;75286;52.218;5.180;2024-01-30T05:02:41;102461.59;;;8.14;96.68
84924;BME280;75286;52.218;5.180;2024-01-30T05:05:07;102457.88;;;8.07;96.91
84924;BME280;75286;52.218;5.180;2024-01-30T05:07:33;102460.09;;;8.11;96.63
84924;BME280;75286;52.218;5.180;2024-01-30T05:10:07;102452.19;;;8.03;96.95
84924;BME280;75286;52.218;5.180;2024-01-30T05:12:33;102456.56;;;8.12;97.20
84924;BME280;75286;52.218;5.180;2024-01-30T05:14:59;102441.88;;;8.03;97.37
84924;BME280;75286;52.218;5.180;2024-01-30T05:17:24;102456.94;;;8.08;97.08
84924;BME280;75286;52.218;5.180;2024-01-30T05:19:49;102455.63;;;8.13;97.84
84924;BME280;75286;52.218;5.180;2024-01-30T05:22:15;102451.41;;;8.12;97.35
84924;BME280;75286;52.218;5.180;2024-01-30T05:24:41;102455.63;;;8.13;97.99
84924;BME280;75286;52.218;5.180;2024-01-30T05:27:08;102463.78;;;8.18;96.91
84924;BME280;75286;52.218;5.180;2024-01-30T05:29:33;102463.78;;;8.18;97.00
84924;BME280;75286;52.218;5.180;2024-01-30T05:31:58;102467.06;;;8.20;96.96
84924;BME280;75286;52.218;5.180;2024-01-30T05:34:24;102469.50;;;8.22;97.65
84924;BME280;75286;52.218;5.180;2024-01-30T05:36:49;102458.50;;;8.20;97.17
84924;BME280;75286;52.218;5.180;2024-01-30T05:39:14;102464.47;;;8.20;97.60
84924;BME280;75286;52.218;5.180;2024-01-30T05:41:40;102460.03;;;8.22;97.65
84924;BME280;75286;52.218;5.180;2024-01-30T05:44:05;102462.59;;;8.22;97.65
84924;BME280;75286;52.218;5.180;2024-01-30T05:46:30;102463.66;;;8.20;98.10
84924;BME280;75286;52.218;5.180;2024-01-30T05:48:56;102456.75;;;8.20;98.20
84924;BME280;75286;52.218;5.180;2024-01-30T05:51:21;102465.31;;;8.21;97.56
84924;BME280;75286;52.218;5.180;2024-01-30T05:53:47;102462.44;;;8.24;97.40
84924;BME280;75286;52.218;5.180;2024-01-30T05:56:12;102463.41;;;8.23;97.53
84924;BME280;75286;52.218;5.180;2024-01-30T05:58:37;102475.22;;;8.25;97.59
84924;BME280;75286;52.218;5.180;2024-01-30T06:01:07;102465.41;;;8.19;97.64
84924;BME280;75286;52.218;5.180;2024-01-30T06:03:33;102466.00;;;8.23;97.97
84924;BME280;75286;52.218;5.180;2024-01-30T06:05:58;102465.72;;;8.26;97.77
84924;BME280;75286;52.218;5.180;2024-01-30T06:08:24;102475.81;;;8.29;97.36
84924;BME280;75286;52.218;5.180;2024-01-30T06:10:49;102468.31;;;8.26;98.20
84924;BME280;75286;52.218;5.180;2024-01-30T06:13:15;102475.81;;;8.29;97.70
84924;BME280;75286;52.218;5.180;2024-01-30T06:15:40;102465.72;;;8.26;97.50
84924;BME280;75286;52.218;5.180;2024-01-30T06:18:05;102450.53;;;8.23;97.87
84924;BME280;75286;52.218;5.180;2024-01-30T06:20:31;102468.66;;;8.33;97.44
84924;BME280;75286;52.218;5.180;2024-01-30T06:22:56;102471.22;;;8.33;97.97
84924;BME280;75286;52.218;5.180;2024-01-30T06:25:21;102472.16;;;8.32;98.10
84924;BME280;75286;52.218;5.180;2024-01-30T06:27:47;102469.34;;;8.35;97.67
84924;BME280;75286;52.218;5.180;2024-01-30T06:30:12;102463.09;;;8.37;97.45
84924;BME280;75286;52.218;5.180;2024-01-30T06:32:40;102467.31;;;8.38;97.87
84924;BME280;75286;52.218;5.180;2024-01-30T06:35:06;102460.66;;;8.36;98.25
84924;BME280;75286;52.218;5.180;2024-01-30T06:37:31;102469.63;;;8.41;97.36
84924;BME280;75286;52.218;5.180;2024-01-30T06:39:57;102471.53;;;8.39;97.86
84924;BME280;75286;52.218;5.180;2024-01-30T06:42:22;102472.91;;;8.43;97.70
84924;BME280;75286;52.218;5.180;2024-01-30T06:44:48;102483.34;;;8.42;97.97
84924;BME280;75286;52.218;5.180;2024-01-30T06:47:13;102479.69;;;8.44;97.99
84924;BME280;75286;52.218;5.180;2024-01-30T06:49:38;102485.66;;;8.45;98.21
84924;BME280;75286;52.218;5.180;2024-01-30T06:52:07;102480.63;;;8.43;97.97
84924;BME280;75286;52.218;5.180;2024-01-30T06:54:33;102483.41;;;8.51;97.74
84924;BME280;75286;52.218;5.180;2024-01-30T06:56:59;102487.72;;;8.51;98.14
84924;BME280;75286;52.218;5.180;2024-01-30T06:59:25;102476.84;;;8.47;98.14
84924;BME280;75286;52.218;5.180;2024-01-30T07:01:50;102483.94;;;8.55;97.87
84924;BME280;75286;52.218;5.180;2024-01-30T07:04:19;102489.91;;;8.55;98.16
84924;BME280;75286;52.218;5.180;2024-01-30T07:06:44;102476.84;;;8.47;98.22
84924;BME280;75286;52.218;5.180;2024-01-30T07:09:09;102462.47;;;8.45;98.75
84924;BME280;75286;52.218;5.180;2024-01-30T07:11:41;102474.69;;;8.52;98.80
84924;BME280;75286;52.218;5.180;2024-01-30T07:14:09;102486.44;;;8.66;98.29
84924;BME280;75286;52.218;5.180;2024-01-30T07:16:35;102478.06;;;8.74;98.40
84924;BME280;75286;52.218;5.180;2024-01-30T07:19:00;102461.75;;;8.63;97.61
84924;BME280;75286;52.218;5.180;2024-01-30T07:21:25;102470.72;;;8.69;98.18
84924;BME280;75286;52.218;5.180;2024-01-30T07:23:54;102482.00;;;8.78;99.13
84924;BME280;75286;52.218;5.180;2024-01-30T07:26:20;102482.41;;;8.83;98.69
84924;BME280;75286;52.218;5.180;2024-01-30T07:28:45;102484.88;;;8.84;98.86
84924;BME280;75286;52.218;5.180;2024-01-30T07:31:11;102482.00;;;8.87;98.28
84924;BME280;75286;52.218;5.180;2024-01-30T07:33:36;102487.34;;;8.95;98.56
84924;BME280;75286;52.218;5.180;2024-01-30T07:36:02;102510.75;;;9.03;98.30
84924;BME280;75286;52.218;5.180;2024-01-30T07:38:27;102486.94;;;9.00;97.92
84924;BME280;75286;52.218;5.180;2024-01-30T07:40:52;102509.94;;;9.13;98.71
84924;BME280;75286;52.218;5.180;2024-01-30T07:43:18;102513.22;;;9.15;98.77
84924;BME280;75286;52.218;5.180;2024-01-30T07:45:48;102517.44;;;9.16;98.65
84924;BME280;75286;52.218;5.180;2024-01-30T07:48:17;102508.03;;;9.15;98.63
84924;BME280;75286;52.218;5.180;2024-01-30T07:50:43;102513.75;;;9.28;97.81
84924;BME280;75286;52.218;5.180;2024-01-30T07:53:08;102508.75;;;9.26;97.98
84924;BME280;75286;52.218;5.180;2024-01-30T07:55:33;102512.97;;;9.37;97.91
84924;BME280;75286;52.218;5.180;2024-01-30T07:57:59;102521.94;;;9.42;97.83
84924;BME280;75286;52.218;5.180;2024-01-30T08:00:25;102520.03;;;9.44;98.09
84924;BME280;75286;52.218;5.180;2024-01-30T08:02:53;102521.41;;;9.48;98.34
84924;BME280;75286;52.218;5.180;2024-01-30T08:05:22;102517.88;;;9.49;97.85
84924;BME280;75286;52.218;5.180;2024-01-30T08:07:53;102525.75;;;9.58;98.01
84924;BME280;75286;52.218;5.180;2024-01-30T08:10:20;102528.75;;;9.63;97.41
84924;BME280;75286;52.218;5.180;2024-01-30T08:12:45;102529.31;;;9.66;98.17
84924;BME280;75286;52.218;5.180;2024-01-30T08:15:11;102529.84;;;9.70;98.00
84924;BME280;75286;52.218;5.180;2024-01-30T08:17:40;102524.44;;;9.73;97.92
84924;BME280;75286;52.218;5.180;2024-01-30T08:20:10;102521.31;;;9.79;97.60
84924;BME280;75286;52.218;5.180;2024-01-30T08:22:38;102528.63;;;9.83;97.81
84924;BME280;75286;52.218;5.180;2024-01-30T08:25:05;102530.81;;;9.88;97.66
84924;BME280;75286;52.218;5.180;2024-01-30T08:27:30;102544.00;;;9.95;97.83
84924;BME280;75286;52.218;5.180;2024-01-30T08:29:56;102532.16;;;10.02;97.46
84924;BME280;75286;52.218;5.180;2024-01-30T08:32:22;102527.13;;;10.00;97.57
84924;BME280;75286;52.218;5.180;2024-01-30T08:34:49;102532.69;;;10.05;97.45
84924;BME280;75286;52.218;5.180;2024-01-30T08:37:14;102529.59;;;10.02;97.06
84924;BME280;75286;52.218;5.180;2024-01-30T08:39:42;102540.31;;;10.07;97.51
84924;BME280;75286;52.218;5.180;2024-01-30T08:42:08;102527.25;;;10.08;97.20
84924;BME280;75286;52.218;5.180;2024-01-30T08:44:33;102536.50;;;10.11;97.55
84924;BME280;75286;52.218;5.180;2024-01-30T08:47:04;102532.56;;;10.16;97.39
84924;BME280;75286;52.218;5.180;2024-01-30T08:49:30;102539.09;;;10.20;97.32
84924;BME280;75286;52.218;5.180;2024-01-30T08:51:56;102539.91;;;10.21;97.28
84924;BME280;75286;52.218;5.180;2024-01-30T08:54:22;102535.00;;;10.27;96.85
84924;BME280;75286;52.218;5.180;2024-01-30T08:56:48;102534.56;;;10.32;96.51
84924;BME280;75286;52.218;5.180;2024-01-30T08:59:13;102554.03;;;10.26;96.88
84924;BME280;75286;52.218;5.180;2024-01-30T09:01:38;102533.53;;;10.25;96.66
84924;BME280;75286;52.218;5.180;2024-01-30T09:04:04;102531.59;;;10.27;96.42
84924;BME280;75286;52.218;5.180;2024-01-30T09:06:29;102536.25;;;10.23;96.86
84924;BME280;75286;52.218;5.180;2024-01-30T09:08:54;102542.22;;;10.24;97.01
84924;BME280;75286;52.218;5.180;2024-01-30T09:11:20;102544.81;;;10.24;97.05
84924;BME280;75286;52.218;5.180;2024-01-30T09:13:45;102533.91;;;10.20;96.76
84924;BME280;75286;52.218;5.180;2024-01-30T09:16:11;102546.28;;;10.26;97.04
84924;BME280;75286;52.218;5.180;2024-01-30T09:18:36;102537.44;;;10.19;97.01
84924;BME280;75286;52.218;5.180;2024-01-30T09:21:01;102557.75;;;10.24;96.86
84924;BME280;75286;52.218;5.180;2024-01-30T09:23:27;102560.03;;;10.27;97.28
84924;BME280;75286;52.218;5.180;2024-01-30T09:25:53;102554.47;;;10.22;97.34
84924;BME280;75286;52.218;5.180;2024-01-30T09:28:18;102550.94;;;10.23;97.15
84924;BME280;75286;52.218;5.180;2024-01-30T09:30:43;102554.34;;;10.23;97.24
84924;BME280;75286;52.218;5.180;2024-01-30T09:33:09;102547.22;;;10.16;97.73
84924;BME280;75286;52.218;5.180;2024-01-30T09:35:35;102562.63;;;10.27;97.44
84924;BME280;75286;52.218;5.180;2024-01-30T09:38:01;102558.13;;;10.29;97.28
84924;BME280;75286;52.218;5.180;2024-01-30T09:40:27;102553.22;;;10.26;97.10
84924;BME280;75286;52.218;5.180;2024-01-30T09:42:53;102569.00;;;10.32;97.26
84924;BME280;75286;52.218;5.180;2024-01-30T09:45:32;102554.34;;;10.23;97.22
84924;BME280;75286;52.218;5.180;2024-01-30T09:47:59;102569.81;;;10.33;97.57
84924;BME280;75286;52.218;5.180;2024-01-30T09:50:34;102574.75;;;10.36;97.20
84924;BME280;75286;52.218;5.180;2024-01-30T09:53:01;102574.44;;;10.39;96.90
84924;BME280;75286;52.218;5.180;2024-01-30T09:55:27;102574.03;;;10.44;96.93
84924;BME280;75286;52.218;5.180;2024-01-30T09:57:52;102565.44;;;10.43;97.15
84924;BME280;75286;52.218;5.180;2024-01-30T10:00:23;102570.47;;;10.45;97.12
84924;BME280;75286;52.218;5.180;2024-01-30T10:03:17;102584.09;;;10.47;97.02
84924;BME280;75286;52.218;5.180;2024-01-30T10:05:53;102575.22;;;10.49;97.20
84924;BME280;75286;52.218;5.180;2024-01-30T10:08:20;102585.03;;;10.55;96.91
84924;BME280;75286;52.218;5.180;2024-01-30T10:10:47;102581.63;;;10.64;96.44
84924;BME280;75286;52.218;5.180;2024-01-30T10:13:12;102574.13;;;10.61;96.13
84924;BME280;75286;52.218;5.180;2024-01-30T10:15:38;102587.31;;;10.68;96.31
84924;BME280;75286;52.218;5.180;2024-01-30T10:18:04;102583.78;;;10.69;96.09
84924;BME280;75286;52.218;5.180;2024-01-30T10:20:32;102583.09;;;10.67;95.99
84924;BME280;75286;52.218;5.180;2024-01-30T10:22:57;102596.56;;;10.70;96.05
84924;BME280;75286;52.218;5.180;2024-01-30T10:25:23;102578.47;;;10.70;96.62
84924;BME280;75286;52.218;5.180;2024-01-30T10:27:53;102566.63;;;10.68;96.33
84924;BME280;75286;52.218;5.180;2024-01-30T10:30:19;102574.25;;;10.69;96.42
84924;BME280;75286;52.218;5.180;2024-01-30T10:32:48;102582.00;;;10.69;96.11
84924;BME280;75286;52.218;5.180;2024-01-30T10:35:14;102582.13;;;10.68;96.17
84924;BME280;75286;52.218;5.180;2024-01-30T10:37:39;102588.56;;;10.64;95.52
84924;BME280;75286;52.218;5.180;2024-01-30T10:40:05;102600.81;;;10.62;95.52
84924;BME280;75286;52.218;5.180;2024-01-30T10:42:36;102604.06;;;10.54;95.46
84924;BME280;75286;52.218;5.180;2024-01-30T10:45:11;102600.00;;;10.52;95.07
84924;BME280;75286;52.218;5.180;2024-01-30T10:47:43;102606.56;;;10.46;95.07
84924;BME280;75286;52.218;5.180;2024-01-30T10:50:09;102609.56;;;10.42;95.35
84924;BME280;75286;52.218;5.180;2024-01-30T10:52:37;102609.00;;;10.38;95.39
84924;BME280;75286;52.218;5.180;2024-01-30T10:55:04;102621.94;;;10.48;95.29
84924;BME280;75286;52.218;5.180;2024-01-30T10:57:34;102621.75;;;10.68;94.19
84924;BME280;75286;52.218;5.180;2024-01-30T11:00:00;102629.09;;;10.73;92.80
84924;BME280;75286;52.218;5.180;2024-01-30T11:02:27;102628.28;;;10.72;92.28
84924;BME280;75286;52.218;5.180;2024-01-30T11:04:59;102632.38;;;10.65;92.38
84924;BME280;75286;52.218;5.180;2024-01-30T11:07:26;102625.59;;;10.55;92.36
84924;BME280;75286;52.218;5.180;2024-01-30T11:12:25;102643.56;;;10.37;91.28
84924;BME280;75286;52.218;5.180;2024-01-30T11:15:08;102642.75;;;10.27;90.14
84924;BME280;75286;52.218;5.180;2024-01-30T11:22:45;102640.56;;;10.13;91.31
84924;BME280;75286;52.218;5.180;2024-01-30T11:25:12;102639.88;;;10.01;90.91
84924;BME280;75286;52.218;5.180;2024-01-30T11:27:38;102652.66;;;10.03;91.11
84924;BME280;75286;52.218;5.180;2024-01-30T11:30:04;102648.72;;;9.99;90.87
84924;BME280;75286;52.218;5.180;2024-01-30T11:32:30;102635.09;;;9.97;90.61
84924;BME280;75286;52.218;5.180;2024-01-30T11:34:55;102644.19;;;9.91;89.54
84924;BME280;75286;52.218;5.180;2024-01-30T11:37:25;102649.25;;;9.92;88.98
84924;BME280;75286;52.218;5.180;2024-01-30T11:39:54;102643.78;;;9.86;87.98
84924;BME280;75286;52.218;5.180;2024-01-30T11:42:19;102653.19;;;9.87;87.94
84924;BME280;75286;52.218;5.180;2024-01-30T11:44:49;102646.53;;;9.84;88.07
84924;BME280;75286;52.218;5.180;2024-01-30T11:47:15;102639.16;;;9.80;88.76
84924;BME280;75286;52.218;5.180;2024-01-30T11:49:41;102650.06;;;9.83;88.65
84924;BME280;75286;52.218;5.180;2024-01-30T11:52:07;102645.00;;;9.72;89.25
84924;BME280;75286;52.218;5.180;2024-01-30T11:54:32;102649.06;;;9.75;89.51
84924;BME280;75286;52.218;5.180;2024-01-30T11:56:59;102648.53;;;9.62;89.46
84924;BME280;75286;52.218;5.180;2024-01-30T12:02:16;102644.53;;;9.48;90.24
84924;BME280;75286;52.218;5.180;2024-01-30T12:07:32;102653.44;;;9.34;90.65
84924;BME280;75286;52.218;5.180;2024-01-30T12:09:57;102661.38;;;9.42;90.81
84924;BME280;75286;52.218;5.180;2024-01-30T12:12:38;102674.91;;;9.35;90.21
84924;BME280;75286;52.218;5.180;2024-01-30T12:15:05;102689.59;;;9.34;89.94
84924;BME280;75286;52.218;5.180;2024-01-30T12:17:38;102656.38;;;9.20;89.84
84924;BME280;75286;52.218;5.180;2024-01-30T12:22:38;102672.28;;;9.25;89.32
84924;BME280;75286;52.218;5.180;2024-01-30T12:25:24;102665.31;;;9.16;90.12
84924;BME280;75286;52.218;5.180;2024-01-30T12:27:58;102650.22;;;9.12;90.44
84924;BME280;75286;52.218;5.180;2024-01-30T12:30:24;102657.72;;;9.15;89.57
84924;BME280;75286;52.218;5.180;2024-01-30T12:32:50;102676.34;;;9.18;89.99
84924;BME280;75286;52.218;5.180;2024-01-30T12:35:17;102677.84;;;9.21;90.28
84924;BME280;75286;52.218;5.180;2024-01-30T12:37:58;102670.22;;;9.19;90.37
84924;BME280;75286;52.218;5.180;2024-01-30T12:40:33;102663.69;;;9.15;90.56
84924;BME280;75286;52.218;5.180;2024-01-30T12:42:58;102659.34;;;9.16;90.53
84924;BME280;75286;52.218;5.180;2024-01-30T12:45:29;102668.28;;;9.12;90.89
84924;BME280;75286;52.218;5.180;2024-01-30T12:48:04;102681.38;;;9.20;91.11
84924;BME280;75286;52.218;5.180;2024-01-30T12:50:33;102680.00;;;9.16;91.55
84924;BME280;75286;52.218;5.180;2024-01-30T12:52:58;102685.41;;;9.13;91.75
84924;BME280;75286;52.218;5.180;2024-01-30T12:55:24;102685.84;;;9.18;91.97
84924;BME280;75286;52.218;5.180;2024-01-30T12:57:50;102688.81;;;9.13;92.46
84924;BME280;75286;52.218;5.180;2024-01-30T13:00:18;102693.28;;;9.11;92.61
84924;BME280;75286;52.218;5.180;2024-01-30T13:06:55;102669.88;;;9.03;92.67
84924;BME280;75286;52.218;5.180;2024-01-30T13:09:20;102678.69;;;9.00;93.14
84924;BME280;75286;52.218;5.180;2024-01-30T13:11:52;102694.16;;;9.00;93.32
84924;BME280;75286;52.218;5.180;2024-01-30T13:14:24;102670.19;;;8.89;93.41
84924;BME280;75286;52.218;5.180;2024-01-30T13:16:49;102684.13;;;8.97;93.62